createdAt,value
2023-05-08T00:00:17.938Z,16.47
2023-05-08T00:02:45.572Z,16.46
2023-05-08T00:05:13.010Z,16.52
2023-05-08T00:07:40.490Z,16.42
2023-05-08T00:10:09.646Z,16.30
2023-05-08T00:12:37.394Z,16.28
2023-05-08T00:15:06.009Z,16.40
2023-05-08T00:17:34.092Z,16.43
2023-05-08T00:20:02.412Z,16.39
2023-05-08T00:22:30.253Z,16.46
2023-05-08T00:24:57.657Z,16.55
2023-05-08T00:27:25.050Z,16.66
2023-05-08T00:29:52.400Z,16.53
2023-05-08T00:32:19.936Z,16.54
2023-05-08T00:34:47.491Z,16.52
2023-05-08T00:37:14.860Z,16.50
2023-05-08T00:39:42.340Z,16.50
2023-05-08T00:42:09.694Z,16.53
2023-05-08T00:44:39.506Z,16.38
2023-05-08T00:47:08.638Z,16.46
2023-05-08T00:49:36.365Z,16.46
2023-05-08T00:52:08.766Z,16.44
2023-05-08T00:54:38.186Z,16.40
2023-05-08T00:57:08.849Z,16.37
2023-05-08T00:59:37.287Z,16.45
2023-05-08T01:02:05.198Z,16.48
2023-05-08T01:04:34.873Z,16.60
2023-05-08T01:07:03.339Z,16.73
2023-05-08T01:09:31.136Z,16.65
2023-05-08T01:12:19.653Z,16.54
2023-05-08T01:14:58.813Z,16.63
2023-05-08T01:17:44.846Z,16.61
2023-05-08T01:20:25.314Z,16.54
2023-05-08T01:23:23.382Z,16.55
2023-05-08T01:25:53.809Z,16.56
2023-05-08T01:28:36.515Z,16.60
2023-05-08T01:31:28.740Z,16.57
2023-05-08T01:33:59.186Z,16.68
2023-05-08T01:36:41.522Z,16.55
2023-05-08T01:39:20.378Z,16.38
2023-05-08T01:41:58.999Z,16.46
2023-05-08T01:44:33.268Z,16.55
2023-05-08T01:47:07.012Z,16.64
2023-05-08T01:49:37.385Z,16.55
2023-05-08T01:52:08.619Z,16.68
2023-05-08T01:54:53.481Z,16.73
2023-05-08T01:57:24.190Z,16.60
2023-05-08T01:59:52.994Z,16.63
2023-05-08T02:02:21.992Z,16.70
2023-05-08T02:04:50.905Z,16.63
2023-05-08T02:07:22.698Z,16.50
2023-05-08T02:09:51.462Z,16.56
2023-05-08T02:12:22.088Z,16.56
2023-05-08T02:14:53.360Z,16.46
2023-05-08T02:17:21.442Z,16.48
2023-05-08T02:19:50.738Z,16.59
2023-05-08T02:22:21.423Z,16.63
2023-05-08T02:24:53.204Z,16.81
2023-05-08T02:27:22.937Z,16.74
2023-05-08T02:29:52.120Z,16.73
2023-05-08T02:32:21.250Z,16.65
2023-05-08T02:35:01.820Z,16.49
2023-05-08T02:37:31.990Z,16.43
2023-05-08T02:39:59.902Z,16.64
2023-05-08T02:42:27.628Z,16.53
2023-05-08T02:44:55.079Z,16.62
2023-05-08T02:47:26.959Z,16.70
2023-05-08T02:50:01.679Z,16.73
2023-05-08T02:52:32.493Z,16.78
2023-05-08T02:55:20.048Z,16.66
2023-05-08T02:57:57.401Z,16.62
2023-05-08T03:00:31.520Z,16.67
2023-05-08T03:03:09.060Z,16.71
2023-05-08T03:05:38.660Z,16.71
2023-05-08T03:08:16.152Z,16.68
2023-05-08T03:10:46.871Z,16.63
2023-05-08T03:13:16.272Z,16.68
2023-05-08T03:15:54.347Z,16.78
2023-05-08T03:18:26.073Z,16.73
2023-05-08T03:20:56.355Z,16.67
2023-05-08T03:23:26.477Z,16.58
2023-05-08T03:25:57.811Z,16.67
2023-05-08T03:28:27.579Z,16.69
2023-05-08T03:30:57.538Z,16.61
2023-05-08T03:33:27.117Z,16.68
2023-05-08T03:35:56.608Z,16.74
2023-05-08T03:38:24.663Z,16.72
2023-05-08T03:40:52.803Z,16.56
2023-05-08T03:43:22.004Z,16.54
2023-05-08T03:45:51.283Z,16.57
2023-05-08T03:48:20.342Z,16.55
2023-05-08T03:50:47.935Z,16.59
2023-05-08T03:53:15.356Z,16.57
2023-05-08T03:55:43.165Z,16.60
2023-05-08T03:58:37.264Z,16.71
2023-05-08T04:01:23.525Z,16.58
2023-05-08T04:04:02.990Z,16.58
2023-05-08T04:07:01.970Z,16.54
2023-05-08T04:09:56.263Z,16.76
2023-05-08T04:12:31.494Z,16.73
2023-05-08T04:15:29.938Z,16.58
2023-05-08T04:18:14.861Z,16.78
2023-05-08T04:20:46.479Z,16.77
2023-05-08T04:23:19.842Z,16.76
2023-05-08T04:25:49.632Z,16.75
2023-05-08T04:28:18.502Z,16.72
2023-05-08T04:30:46.378Z,16.81
2023-05-08T04:33:15.582Z,16.76
2023-05-08T04:35:43.156Z,16.70
2023-05-08T04:38:10.830Z,16.60
2023-05-08T04:40:38.383Z,16.48
2023-05-08T04:43:05.845Z,16.44
2023-05-08T04:45:33.144Z,16.40
2023-05-08T04:48:00.877Z,16.49
2023-05-08T04:50:28.255Z,16.52
2023-05-08T04:52:55.867Z,16.54
2023-05-08T04:55:23.598Z,16.51
2023-05-08T04:57:51.003Z,16.48
2023-05-08T05:00:19.449Z,16.42
2023-05-08T05:02:47.536Z,16.49
2023-05-08T05:05:15.238Z,16.48
2023-05-08T05:07:42.666Z,16.50
2023-05-08T05:10:11.456Z,16.40
2023-05-08T05:12:38.924Z,16.55
2023-05-08T05:15:38.135Z,16.36
2023-05-08T05:18:05.763Z,16.36
2023-05-08T05:20:33.344Z,16.44
2023-05-08T05:23:00.928Z,16.43
2023-05-08T05:25:28.282Z,16.38
2023-05-08T05:27:55.584Z,16.48
2023-05-08T05:30:22.979Z,16.51
2023-05-08T05:32:50.396Z,16.44
2023-05-08T05:35:17.993Z,16.42
2023-05-08T05:37:45.594Z,16.42
2023-05-08T05:40:15.882Z,16.30
2023-05-08T05:42:48.937Z,16.40
2023-05-08T05:45:16.667Z,16.42
2023-05-08T05:47:50.873Z,16.43
2023-05-08T05:50:21.601Z,16.42
2023-05-08T05:52:49.834Z,16.25
2023-05-08T05:55:17.380Z,16.24
2023-05-08T05:57:47.366Z,16.31
2023-05-08T06:00:16.507Z,16.27
2023-05-08T06:02:49.189Z,16.34
2023-05-08T06:05:19.725Z,16.37
2023-05-08T06:07:47.030Z,16.46
2023-05-08T06:10:14.467Z,16.46
2023-05-08T06:12:42.101Z,16.50
2023-05-08T06:15:47.753Z,16.43
2023-05-08T06:18:15.792Z,16.66
2023-05-08T06:20:43.366Z,16.64
2023-05-08T06:23:10.630Z,16.60
2023-05-08T06:25:37.951Z,16.58
2023-05-08T06:28:06.678Z,16.50
2023-05-08T06:30:34.679Z,16.46
2023-05-08T06:33:02.148Z,16.36
2023-05-08T06:35:29.539Z,16.26
2023-05-08T06:37:57.294Z,16.38
2023-05-08T06:40:24.685Z,16.44
2023-05-08T06:42:52.093Z,16.52
2023-05-08T06:45:19.478Z,16.55
2023-05-08T06:47:46.832Z,16.54
2023-05-08T06:50:14.204Z,16.62
2023-05-08T06:52:42.323Z,16.64
2023-05-08T06:55:09.878Z,16.65
2023-05-08T06:57:37.175Z,16.59
2023-05-08T07:00:04.937Z,16.57
2023-05-08T07:02:33.847Z,16.54
2023-05-08T07:05:01.534Z,16.62
2023-05-08T07:07:29.297Z,16.60
2023-05-08T07:09:56.591Z,16.71
2023-05-08T07:12:23.974Z,16.79
2023-05-08T07:14:51.306Z,16.75
2023-05-08T07:17:18.626Z,16.82
2023-05-08T07:19:51.119Z,16.88
2023-05-08T07:22:18.863Z,16.87
2023-05-08T07:24:46.544Z,16.91
2023-05-08T07:27:14.796Z,16.88
2023-05-08T07:29:42.682Z,16.86
2023-05-08T07:32:09.977Z,16.84
2023-05-08T07:34:37.373Z,16.86
2023-05-08T07:37:04.830Z,16.82
2023-05-08T07:39:32.184Z,16.73
2023-05-08T07:41:59.490Z,16.74
2023-05-08T07:44:26.832Z,16.78
2023-05-08T07:46:54.140Z,16.77
2023-05-08T07:49:21.464Z,16.80
2023-05-08T07:51:49.136Z,16.68
2023-05-08T07:54:16.437Z,16.85
2023-05-08T07:56:43.765Z,16.87
2023-05-08T07:59:11.098Z,16.87
2023-05-08T08:01:39.023Z,16.81
2023-05-08T08:04:06.518Z,16.82
2023-05-08T08:06:33.947Z,16.83
2023-05-08T08:09:01.265Z,16.76
2023-05-08T08:11:28.662Z,16.80
2023-05-08T08:13:56.124Z,16.81
2023-05-08T08:16:23.670Z,16.75
2023-05-08T08:18:52.936Z,16.78
2023-05-08T08:21:20.239Z,16.73
2023-05-08T08:23:47.539Z,16.58
2023-05-08T08:26:14.858Z,16.54
2023-05-08T08:28:42.246Z,16.52
2023-05-08T08:31:09.705Z,16.53
2023-05-08T08:33:37.001Z,16.60
2023-05-08T08:36:04.474Z,16.64
2023-05-08T08:38:31.818Z,16.59
2023-05-08T08:40:59.146Z,16.54
2023-05-08T08:43:26.862Z,16.65
2023-05-08T08:45:54.260Z,16.57
2023-05-08T08:48:26.088Z,16.73
2023-05-08T08:50:59.646Z,16.71
2023-05-08T08:53:34.569Z,16.66
2023-05-08T08:56:03.686Z,16.60
2023-05-08T08:58:43.502Z,16.86
2023-05-08T09:01:16.253Z,16.98
2023-05-08T09:03:43.826Z,17.02
2023-05-08T09:06:12.457Z,17.01
2023-05-08T09:08:41.122Z,16.97
2023-05-08T09:11:08.452Z,17.12
2023-05-08T09:13:36.138Z,17.14
2023-05-08T09:16:03.877Z,17.11
2023-05-08T09:18:31.312Z,17.08
2023-05-08T09:21:01.833Z,17.15
2023-05-08T09:23:29.267Z,17.26
2023-05-08T09:25:56.866Z,17.39
2023-05-08T09:28:25.777Z,17.39
2023-05-08T09:30:53.909Z,17.36
2023-05-08T09:33:22.945Z,17.25
2023-05-08T09:35:50.494Z,17.21
2023-05-08T09:38:36.560Z,17.38
2023-05-08T09:41:17.230Z,17.44
2023-05-08T09:43:59.927Z,17.30
2023-05-08T09:46:27.561Z,17.43
2023-05-08T09:48:59.243Z,17.36
2023-05-08T09:51:27.643Z,17.47
2023-05-08T09:53:56.418Z,17.55
2023-05-08T09:56:39.238Z,17.52
2023-05-08T09:59:23.150Z,17.57
2023-05-08T10:01:51.009Z,17.57
2023-05-08T10:04:18.825Z,17.54
2023-05-08T10:06:57.690Z,17.79
2023-05-08T10:09:26.144Z,17.62
2023-05-08T10:11:55.668Z,17.62
2023-05-08T10:14:24.080Z,17.72
2023-05-08T10:16:53.182Z,17.76
2023-05-08T10:19:23.531Z,17.79
2023-05-08T10:21:52.641Z,17.82
2023-05-08T10:24:27.918Z,17.87
2023-05-08T10:27:14.119Z,17.97
2023-05-08T10:29:56.060Z,18.01
2023-05-08T10:32:24.732Z,18.23
2023-05-08T10:34:54.250Z,18.24
2023-05-08T10:37:22.213Z,18.27
2023-05-08T10:39:52.102Z,18.27
2023-05-08T10:42:20.191Z,18.35
2023-05-08T10:44:48.018Z,18.27
2023-05-08T10:47:36.444Z,18.44
2023-05-08T10:50:24.608Z,18.39
2023-05-08T10:53:06.338Z,18.55
2023-05-08T10:55:37.424Z,18.52
2023-05-08T10:58:28.414Z,18.57
2023-05-08T11:01:07.389Z,18.63
2023-05-08T11:03:55.304Z,18.58
2023-05-08T11:06:46.389Z,18.68
2023-05-08T11:09:22.084Z,18.69
2023-05-08T11:11:59.354Z,18.70
2023-05-08T11:14:29.465Z,18.92
2023-05-08T11:16:56.730Z,18.86
2023-05-08T11:19:25.203Z,18.83
2023-05-08T11:22:11.056Z,18.93
2023-05-08T11:24:40.534Z,18.90
2023-05-08T11:27:07.802Z,18.93
2023-05-08T11:29:36.187Z,18.99
2023-05-08T11:32:03.655Z,18.90
2023-05-08T11:34:43.339Z,18.88
2023-05-08T11:37:21.872Z,18.92
2023-05-08T11:39:49.515Z,19.07
2023-05-08T11:42:26.865Z,18.96
2023-05-08T11:45:07.852Z,18.95
2023-05-08T11:47:41.444Z,19.02
2023-05-08T11:50:10.303Z,19.22
2023-05-08T11:52:39.391Z,19.17
2023-05-08T11:55:10.114Z,19.24
2023-05-08T11:57:37.733Z,19.25
2023-05-08T12:00:12.790Z,19.24
2023-05-08T12:02:46.770Z,19.19
2023-05-08T12:05:14.330Z,19.36
2023-05-08T12:07:48.039Z,19.55
2023-05-08T12:10:16.841Z,19.58
2023-05-08T12:12:45.376Z,19.65
2023-05-08T12:15:15.517Z,19.70
2023-05-08T12:17:43.658Z,19.61
2023-05-08T12:20:19.087Z,19.60
2023-05-08T12:22:52.500Z,19.52
2023-05-08T12:25:20.165Z,19.46
2023-05-08T12:27:47.624Z,19.37
2023-05-08T12:30:16.474Z,19.43
2023-05-08T12:32:44.734Z,19.41
2023-05-08T12:35:14.060Z,19.40
2023-05-08T12:37:41.622Z,19.42
2023-05-08T12:40:25.160Z,19.41
2023-05-08T12:42:52.702Z,19.43
2023-05-08T12:45:28.294Z,19.38
2023-05-08T12:48:00.548Z,19.56
2023-05-08T12:50:30.494Z,19.51
2023-05-08T12:53:05.993Z,19.61
2023-05-08T12:55:35.417Z,19.54
2023-05-08T12:58:05.602Z,19.56
2023-05-08T13:00:43.157Z,19.47
2023-05-08T13:03:12.477Z,19.37
2023-05-08T13:05:45.619Z,19.51
2023-05-08T13:08:13.307Z,19.44
2023-05-08T13:10:54.850Z,19.43
2023-05-08T13:13:24.528Z,19.42
2023-05-08T13:15:53.768Z,19.56
2023-05-08T13:18:23.994Z,19.57
2023-05-08T13:20:52.216Z,19.48
2023-05-08T13:23:19.871Z,19.33
2023-05-08T13:25:47.256Z,19.42
2023-05-08T13:28:14.783Z,19.37
2023-05-08T13:30:42.216Z,19.33
2023-05-08T13:33:09.636Z,19.24
2023-05-08T13:35:37.123Z,19.24
2023-05-08T13:38:04.584Z,19.42
2023-05-08T13:40:32.247Z,19.49
2023-05-08T13:42:59.600Z,19.48
2023-05-08T13:45:27.030Z,19.46
2023-05-08T13:47:54.928Z,19.57
2023-05-08T13:50:23.051Z,19.67
2023-05-08T13:52:52.312Z,19.65
2023-05-08T13:55:22.982Z,19.66
2023-05-08T13:57:51.216Z,19.68
2023-05-08T14:00:18.902Z,19.66
2023-05-08T14:02:46.596Z,19.56
2023-05-08T14:05:14.256Z,19.53
2023-05-08T14:07:42.329Z,19.67
2023-05-08T14:10:10.359Z,19.58
2023-05-08T14:12:37.754Z,19.58
2023-05-08T14:15:05.733Z,19.60
2023-05-08T14:17:33.382Z,19.56
2023-05-08T14:20:00.991Z,19.58
2023-05-08T14:22:28.406Z,19.62
2023-05-08T14:24:55.953Z,19.60
2023-05-08T14:27:23.354Z,19.59
2023-05-08T14:29:50.839Z,19.71
2023-05-08T14:32:18.269Z,19.64
2023-05-08T14:34:45.681Z,19.70
2023-05-08T14:37:13.278Z,19.71
2023-05-08T14:39:40.689Z,19.68
2023-05-08T14:44:38.311Z,19.76
2023-05-08T14:47:05.644Z,19.87
2023-05-08T14:49:38.078Z,19.81
2023-05-08T14:52:06.912Z,19.85
2023-05-08T14:54:35.060Z,19.91
2023-05-08T14:57:02.590Z,19.96
2023-05-08T14:59:29.939Z,19.90
2023-05-08T15:01:57.375Z,19.83
2023-05-08T15:04:24.826Z,19.83
2023-05-08T15:06:52.271Z,19.75
2023-05-08T15:09:19.692Z,19.68
2023-05-08T15:11:47.046Z,19.75
2023-05-08T15:14:14.473Z,19.78
2023-05-08T15:16:41.858Z,19.64
2023-05-08T15:19:09.602Z,19.63
2023-05-08T15:21:37.138Z,19.66
2023-05-08T15:24:04.632Z,19.68
2023-05-08T15:26:32.088Z,19.59
2023-05-08T15:28:59.474Z,19.68
2023-05-08T15:31:26.873Z,19.53
2023-05-08T15:33:54.214Z,19.59
2023-05-08T15:36:22.187Z,19.63
2023-05-08T15:38:49.685Z,19.68
2023-05-08T15:41:17.057Z,19.65
2023-05-08T15:43:45.395Z,19.69
2023-05-08T15:46:12.863Z,19.82
2023-05-08T15:48:40.272Z,19.89
2023-05-08T15:51:07.569Z,19.97
2023-05-08T15:53:35.472Z,19.76
2023-05-08T15:56:05.805Z,19.86
2023-05-08T15:58:33.176Z,19.85
2023-05-08T16:01:00.566Z,19.81
2023-05-08T16:03:28.003Z,19.89
2023-05-08T16:05:55.554Z,19.77
2023-05-08T16:08:22.883Z,19.67
2023-05-08T16:10:50.148Z,19.70
2023-05-08T16:13:17.526Z,19.74
2023-05-08T16:15:44.968Z,19.71
2023-05-08T16:18:12.322Z,19.84
2023-05-08T16:20:41.690Z,19.92
2023-05-08T16:23:09.072Z,19.90
2023-05-08T16:25:36.489Z,19.84
2023-05-08T16:28:03.851Z,19.78
2023-05-08T16:30:31.484Z,19.75
2023-05-08T16:32:58.924Z,19.75
2023-05-08T16:35:26.448Z,19.71
2023-05-08T16:37:53.848Z,19.73
2023-05-08T16:40:21.298Z,19.75
2023-05-08T16:42:48.583Z,19.68
2023-05-08T16:45:15.919Z,19.72
2023-05-08T16:47:43.352Z,19.68
2023-05-08T16:50:11.087Z,19.78
2023-05-08T16:52:38.715Z,19.71
2023-05-08T16:55:07.007Z,19.80
2023-05-08T16:57:34.324Z,19.72
2023-05-08T17:00:01.791Z,19.69
2023-05-08T17:02:29.837Z,19.64
2023-05-08T17:04:57.256Z,19.66
2023-05-08T17:07:24.630Z,19.64
2023-05-08T17:09:55.922Z,19.61
2023-05-08T17:12:23.944Z,19.60
2023-05-08T17:14:51.448Z,19.61
2023-05-08T17:17:18.863Z,19.50
2023-05-08T17:19:46.206Z,19.47
2023-05-08T17:22:13.795Z,19.47
2023-05-08T17:24:41.178Z,19.55
2023-05-08T17:27:08.644Z,19.51
2023-05-08T17:29:36.257Z,19.36
2023-05-08T17:32:03.830Z,19.32
2023-05-08T17:34:31.301Z,19.40
2023-05-08T17:36:58.800Z,19.50
2023-05-08T17:39:26.353Z,19.21
2023-05-08T17:41:54.779Z,19.19
2023-05-08T17:44:22.161Z,19.26
2023-05-08T17:46:49.549Z,19.21
2023-05-08T17:49:19.253Z,19.30
2023-05-08T17:51:47.088Z,19.36
2023-05-08T17:54:14.612Z,19.34
2023-05-08T17:56:41.960Z,19.12
2023-05-08T17:59:09.305Z,19.08
2023-05-08T18:01:36.803Z,19.08
2023-05-08T18:04:04.479Z,18.99
2023-05-08T18:06:31.862Z,19.17
2023-05-08T18:08:59.245Z,19.20
2023-05-08T18:11:26.853Z,19.14
2023-05-08T18:13:54.411Z,19.32
2023-05-08T18:16:22.514Z,19.26
2023-05-08T18:18:50.166Z,19.20
2023-05-08T18:21:17.784Z,19.19
2023-05-08T18:23:45.111Z,19.19
2023-05-08T18:26:16.695Z,19.24
2023-05-08T18:28:44.483Z,19.21
2023-05-08T18:31:12.209Z,19.28
2023-05-08T18:33:39.590Z,19.30
2023-05-08T18:36:07.408Z,19.20
2023-05-08T18:38:35.741Z,19.29
2023-05-08T18:41:06.279Z,19.23
2023-05-08T18:43:33.845Z,19.17
2023-05-08T18:46:08.547Z,19.12
2023-05-08T18:48:36.300Z,19.08
2023-05-08T18:51:03.906Z,19.04
2023-05-08T18:53:32.414Z,19.11
2023-05-08T18:56:03.887Z,19.09
2023-05-08T18:58:31.541Z,19.07
2023-05-08T19:00:59.315Z,19.09
2023-05-08T19:03:26.934Z,19.10
2023-05-08T19:05:54.761Z,19.03
2023-05-08T19:08:22.077Z,18.96
2023-05-08T19:10:49.516Z,18.97
2023-05-08T19:13:16.885Z,19.03
2023-05-08T19:15:44.384Z,18.91
2023-05-08T19:18:16.310Z,18.83
2023-05-08T19:21:04.144Z,18.77
2023-05-08T19:23:31.529Z,18.75
2023-05-08T19:25:59.022Z,18.74
2023-05-08T19:28:26.939Z,18.72
2023-05-08T19:30:54.322Z,18.72
2023-05-08T19:33:21.841Z,18.68
2023-05-08T19:35:49.407Z,18.62
2023-05-08T19:38:16.912Z,18.64
2023-05-08T19:40:56.630Z,18.57
2023-05-08T19:43:26.484Z,18.62
2023-05-08T19:45:55.169Z,18.56
2023-05-08T19:48:22.905Z,18.56
2023-05-08T19:50:54.630Z,18.57
2023-05-08T19:53:24.836Z,18.58
2023-05-08T19:55:55.729Z,18.60
2023-05-08T19:58:27.235Z,18.59
2023-05-08T20:00:56.433Z,18.58
2023-05-08T20:03:24.111Z,18.58
2023-05-08T20:05:52.283Z,18.59
2023-05-08T20:08:19.762Z,18.54
2023-05-08T20:10:50.404Z,18.56
2023-05-08T20:13:18.231Z,18.53
2023-05-08T20:15:45.760Z,18.56
2023-05-08T20:18:14.359Z,18.52
2023-05-08T20:20:43.086Z,18.56
2023-05-08T20:23:12.142Z,18.62
2023-05-08T20:25:39.976Z,18.49
2023-05-08T20:28:08.764Z,18.53
2023-05-08T20:30:36.493Z,18.50
2023-05-08T20:33:05.331Z,18.46
2023-05-08T20:35:33.762Z,18.39
2023-05-08T20:38:01.068Z,18.41
2023-05-08T20:40:29.550Z,18.38
2023-05-08T20:42:56.972Z,18.27
2023-05-08T20:45:24.784Z,18.14
2023-05-08T20:47:52.224Z,18.23
2023-05-08T20:50:19.847Z,18.18
2023-05-08T20:52:47.334Z,18.16
2023-05-08T20:55:14.903Z,18.12
2023-05-08T20:57:43.643Z,18.10
2023-05-08T21:00:11.470Z,18.10
2023-05-08T21:02:41.322Z,18.11
2023-05-08T21:05:09.655Z,18.11
2023-05-08T21:07:37.191Z,17.99
2023-05-08T21:10:05.127Z,17.95
2023-05-08T21:12:32.527Z,17.96
2023-05-08T21:14:59.938Z,17.95
2023-05-08T21:17:27.333Z,17.98
2023-05-08T21:19:54.662Z,17.96
2023-05-08T21:22:21.988Z,17.97
2023-05-08T21:24:49.382Z,17.98
2023-05-08T21:27:16.661Z,17.98
2023-05-08T21:29:43.966Z,18.02
2023-05-08T21:32:11.324Z,18.00
2023-05-08T21:34:38.610Z,17.91
2023-05-08T21:37:05.883Z,17.85
2023-05-08T21:39:33.154Z,17.84
2023-05-08T21:42:01.310Z,17.80
2023-05-08T21:44:29.290Z,17.82
2023-05-08T21:46:56.592Z,17.80
2023-05-08T21:49:23.940Z,17.80
2023-05-08T21:51:52.989Z,17.76
2023-05-08T21:54:23.169Z,17.72
2023-05-08T21:56:50.631Z,17.82
2023-05-08T21:59:18.097Z,17.80
2023-05-08T22:01:45.706Z,17.72
2023-05-08T22:04:13.064Z,17.67
2023-05-08T22:06:43.176Z,17.55
2023-05-08T22:09:10.727Z,17.45
2023-05-08T22:11:38.267Z,17.46
2023-05-08T22:14:05.586Z,17.51
2023-05-08T22:16:32.965Z,17.45
2023-05-08T22:19:00.354Z,17.48
2023-05-08T22:21:29.968Z,17.40
2023-05-08T22:23:57.387Z,17.32
2023-05-08T22:26:24.744Z,17.31
2023-05-08T22:28:52.228Z,17.21
2023-05-08T22:31:21.711Z,17.31
2023-05-08T22:33:49.051Z,17.34
2023-05-08T22:36:16.496Z,17.24
2023-05-08T22:38:43.758Z,17.13
2023-05-08T22:41:11.224Z,17.12
2023-05-08T22:43:38.579Z,17.10
2023-05-08T22:46:06.417Z,17.11
2023-05-08T22:48:33.862Z,17.15
2023-05-08T22:51:01.193Z,17.09
2023-05-08T22:53:28.730Z,17.08
2023-05-08T22:55:56.138Z,17.05
2023-05-08T22:58:25.232Z,17.11
2023-05-08T23:00:52.825Z,17.15
2023-05-08T23:03:20.295Z,17.14
2023-05-08T23:05:48.840Z,17.16
2023-05-08T23:08:16.096Z,17.33
2023-05-08T23:10:43.938Z,17.31
2023-05-08T23:13:11.428Z,17.30
2023-05-08T23:15:38.758Z,17.29
2023-05-08T23:18:06.483Z,17.32
2023-05-08T23:20:33.914Z,17.42
2023-05-08T23:23:01.216Z,17.45
2023-05-08T23:25:28.554Z,17.49
2023-05-08T23:27:56.022Z,17.46
2023-05-08T23:30:23.348Z,17.47
2023-05-08T23:32:50.853Z,17.49
2023-05-08T23:35:18.451Z,17.64
2023-05-08T23:37:45.821Z,17.52
2023-05-08T23:40:13.238Z,17.52
2023-05-08T23:42:40.576Z,17.47
2023-05-08T23:45:08.437Z,17.45
2023-05-08T23:47:35.794Z,17.40
2023-05-08T23:50:03.511Z,17.35
2023-05-08T23:52:30.881Z,17.40
2023-05-08T23:54:59.413Z,17.50
2023-05-08T23:57:26.748Z,17.34
2023-05-08T23:59:54.165Z,17.32
